sensor_id;sensor_type;location;lat;lon;timestamp;temperature;humidity
4677;DHT22;2352;48.180;11.478;2022-10-16T00:01:33;17.10;97.70
4677;DHT22;2352;48.180;11.478;2022-10-16T00:04:37;17.10;97.70
4677;DHT22;2352;48.180;11.478;2022-10-16T00:07:41;17.00;97.60
4677;DHT22;2352;48.180;11.478;2022-10-16T00:10:43;17.00;97.70
4677;DHT22;2352;48.180;11.478;2022-10-16T00:13:48;16.90;98.40
4677;DHT22;2352;48.180;11.478;2022-10-16T00:16:51;16.90;97.90
4677;DHT22;2352;48.180;11.478;2022-10-16T00:19:54;16.90;98.10
4677;DHT22;2352;48.180;11.478;2022-10-16T00:22:59;16.90;98.20
4677;DHT22;2352;48.180;11.478;2022-10-16T00:26:04;16.90;98.60
4677;DHT22;2352;48.180;11.478;2022-10-16T00:29:08;16.90;98.30
4677;DHT22;2352;48.180;11.478;2022-10-16T00:32:11;16.80;98.60
4677;DHT22;2352;48.180;11.478;2022-10-16T00:35:14;16.80;98.60
4677;DHT22;2352;48.180;11.478;2022-10-16T00:38:18;16.80;98.90
4677;DHT22;2352;48.180;11.478;2022-10-16T00:41:22;16.80;99.10
4677;DHT22;2352;48.180;11.478;2022-10-16T00:44:44;16.80;99.20
4677;DHT22;2352;48.180;11.478;2022-10-16T00:47:48;16.70;99.30
4677;DHT22;2352;48.180;11.478;2022-10-16T00:50:53;16.70;99.60
4677;DHT22;2352;48.180;11.478;2022-10-16T02:14:40;16.60;98.80
4677;DHT22;2352;48.180;11.478;2022-10-16T02:17:43;16.60;99.00
4677;DHT22;2352;48.180;11.478;2022-10-16T02:20:51;16.60;99.20
4677;DHT22;2352;48.180;11.478;2022-10-16T02:23:59;16.60;99.50
4677;DHT22;2352;48.180;11.478;2022-10-16T02:27:06;16.60;99.40
4677;DHT22;2352;48.180;11.478;2022-10-16T02:30:15;16.50;99.20
4677;DHT22;2352;48.180;11.478;2022-10-16T02:33:21;16.60;99.10
4677;DHT22;2352;48.180;11.478;2022-10-16T02:36:25;16.50;99.10
4677;DHT22;2352;48.180;11.478;2022-10-16T02:39:29;16.50;99.40
4677;DHT22;2352;48.180;11.478;2022-10-16T02:42:34;16.50;99.30
4677;DHT22;2352;48.180;11.478;2022-10-16T02:45:38;16.50;99.20
4677;DHT22;2352;48.180;11.478;2022-10-16T02:48:41;16.50;99.20
4677;DHT22;2352;48.180;11.478;2022-10-16T02:51:44;16.40;99.20
4677;DHT22;2352;48.180;11.478;2022-10-16T02:54:47;16.40;99.20
4677;DHT22;2352;48.180;11.478;2022-10-16T02:57:50;16.40;99.20
4677;DHT22;2352;48.180;11.478;2022-10-16T03:00:55;16.30;99.20
4677;DHT22;2352;48.180;11.478;2022-10-16T03:03:58;16.30;99.40
4677;DHT22;2352;48.180;11.478;2022-10-16T03:07:01;16.30;99.50
4677;DHT22;2352;48.180;11.478;2022-10-16T03:10:05;16.30;99.40
4677;DHT22;2352;48.180;11.478;2022-10-16T03:13:07;16.30;99.40
4677;DHT22;2352;48.180;11.478;2022-10-16T03:16:12;16.30;99.50
4677;DHT22;2352;48.180;11.478;2022-10-16T03:19:16;16.30;99.60
4677;DHT22;2352;48.180;11.478;2022-10-16T03:22:18;16.30;99.60
4677;DHT22;2352;48.180;11.478;2022-10-16T03:25:21;16.40;99.40
4677;DHT22;2352;48.180;11.478;2022-10-16T03:28:24;16.30;99.90
4677;DHT22;2352;48.180;11.478;2022-10-16T03:31:29;16.30;99.90
4677;DHT22;2352;48.180;11.478;2022-10-16T03:34:32;16.30;99.90
4677;DHT22;2352;48.180;11.478;2022-10-16T03:37:35;16.30;99.90
4677;DHT22;2352;48.180;11.478;2022-10-16T03:40:38;16.30;99.90
4677;DHT22;2352;48.180;11.478;2022-10-16T03:43:40;16.40;99.90
4677;DHT22;2352;48.180;11.478;2022-10-16T03:46:44;16.40;99.90
4677;DHT22;2352;48.180;11.478;2022-10-16T03:49:48;16.40;99.90
4677;DHT22;2352;48.180;11.478;2022-10-16T03:52:50;16.40;99.90
4677;DHT22;2352;48.180;11.478;2022-10-16T03:55:53;16.40;99.90
4677;DHT22;2352;48.180;11.478;2022-10-16T03:58:56;16.30;99.90
4677;DHT22;2352;48.180;11.478;2022-10-16T04:02:00;16.30;99.90
4677;DHT22;2352;48.180;11.478;2022-10-16T04:05:04;16.30;99.90
4677;DHT22;2352;48.180;11.478;2022-10-16T04:08:07;16.40;99.90
4677;DHT22;2352;48.180;11.478;2022-10-16T04:11:10;16.40;99.90
4677;DHT22;2352;48.180;11.478;2022-10-16T04:14:12;16.50;99.90
4677;DHT22;2352;48.180;11.478;2022-10-16T04:17:17;16.50;99.90
4677;DHT22;2352;48.180;11.478;2022-10-16T04:20:20;16.50;99.90
4677;DHT22;2352;48.180;11.478;2022-10-16T04:23:23;16.50;99.90
4677;DHT22;2352;48.180;11.478;2022-10-16T04:26:26;16.50;99.90
4677;DHT22;2352;48.180;11.478;2022-10-16T04:29:29;16.50;99.90
4677;DHT22;2352;48.180;11.478;2022-10-16T04:32:33;16.50;99.90
4677;DHT22;2352;48.180;11.478;2022-10-16T04:35:36;16.50;99.90
4677;DHT22;2352;48.180;11.478;2022-10-16T04:38:39;16.50;99.90
4677;DHT22;2352;48.180;11.478;2022-10-16T04:41:42;16.50;99.90
4677;DHT22;2352;48.180;11.478;2022-10-16T04:44:44;16.50;99.90
4677;DHT22;2352;48.180;11.478;2022-10-16T04:47:48;16.40;99.90
4677;DHT22;2352;48.180;11.478;2022-10-16T04:50:51;16.40;99.90
4677;DHT22;2352;48.180;11.478;2022-10-16T04:53:55;16.40;99.90
4677;DHT22;2352;48.180;11.478;2022-10-16T04:56:58;16.40;99.90
4677;DHT22;2352;48.180;11.478;2022-10-16T05:00:01;16.50;99.90
4677;DHT22;2352;48.180;11.478;2022-10-16T05:03:07;16.50;99.90
4677;DHT22;2352;48.180;11.478;2022-10-16T05:06:10;16.50;99.90
4677;DHT22;2352;48.180;11.478;2022-10-16T05:09:13;16.50;99.90
4677;DHT22;2352;48.180;11.478;2022-10-16T05:12:16;16.50;99.90
4677;DHT22;2352;48.180;11.478;2022-10-16T05:15:19;16.50;99.90
4677;DHT22;2352;48.180;11.478;2022-10-16T05:18:23;16.50;99.90
4677;DHT22;2352;48.180;11.478;2022-10-16T05:21:26;16.50;99.90
4677;DHT22;2352;48.180;11.478;2022-10-16T05:24:29;16.50;99.90
4677;DHT22;2352;48.180;11.478;2022-10-16T05:27:31;16.50;99.90
4677;DHT22;2352;48.180;11.478;2022-10-16T05:30:37;16.40;99.90
4677;DHT22;2352;48.180;11.478;2022-10-16T05:33:41;16.30;99.90
4677;DHT22;2352;48.180;11.478;2022-10-16T05:36:45;16.40;99.90
4677;DHT22;2352;48.180;11.478;2022-10-16T05:39:48;16.40;99.90
4677;DHT22;2352;48.180;11.478;2022-10-16T05:42:54;16.40;99.90
4677;DHT22;2352;48.180;11.478;2022-10-16T05:45:59;16.40;99.90
4677;DHT22;2352;48.180;11.478;2022-10-16T05:49:04;16.40;99.90
4677;DHT22;2352;48.180;11.478;2022-10-16T05:52:07;16.40;99.90
4677;DHT22;2352;48.180;11.478;2022-10-16T05:55:09;16.40;99.90
4677;DHT22;2352;48.180;11.478;2022-10-16T05:58:12;16.40;99.90
4677;DHT22;2352;48.180;11.478;2022-10-16T06:01:17;16.40;99.90
4677;DHT22;2352;48.180;11.478;2022-10-16T06:04:21;16.30;99.90
4677;DHT22;2352;48.180;11.478;2022-10-16T06:07:24;16.30;99.90
4677;DHT22;2352;48.180;11.478;2022-10-16T06:10:27;16.40;99.90
4677;DHT22;2352;48.180;11.478;2022-10-16T06:13:30;16.40;99.90
4677;DHT22;2352;48.180;11.478;2022-10-16T06:16:34;16.40;99.90
4677;DHT22;2352;48.180;11.478;2022-10-16T06:19:39;16.30;99.90
4677;DHT22;2352;48.180;11.478;2022-10-16T06:22:42;16.40;99.90
4677;DHT22;2352;48.180;11.478;2022-10-16T06:25:44;16.30;99.90
4677;DHT22;2352;48.180;11.478;2022-10-16T06:28:48;16.30;99.90
4677;DHT22;2352;48.180;11.478;2022-10-16T06:31:51;16.30;99.90
4677;DHT22;2352;48.180;11.478;2022-10-16T06:34:55;16.30;99.90
4677;DHT22;2352;48.180;11.478;2022-10-16T06:37:58;16.30;99.90
4677;DHT22;2352;48.180;11.478;2022-10-16T06:41:01;16.30;99.90
4677;DHT22;2352;48.180;11.478;2022-10-16T06:44:05;16.30;99.90
4677;DHT22;2352;48.180;11.478;2022-10-16T06:47:08;16.20;99.90
4677;DHT22;2352;48.180;11.478;2022-10-16T06:50:12;16.20;99.90
4677;DHT22;2352;48.180;11.478;2022-10-16T06:53:15;16.20;99.90
4677;DHT22;2352;48.180;11.478;2022-10-16T06:56:20;16.30;99.90
4677;DHT22;2352;48.180;11.478;2022-10-16T06:59:23;16.20;99.90
4677;DHT22;2352;48.180;11.478;2022-10-16T07:02:26;16.30;99.90
4677;DHT22;2352;48.180;11.478;2022-10-16T07:05:31;16.20;99.90
4677;DHT22;2352;48.180;11.478;2022-10-16T07:08:34;16.30;99.90
4677;DHT22;2352;48.180;11.478;2022-10-16T07:11:39;16.20;99.90
4677;DHT22;2352;48.180;11.478;2022-10-16T07:14:42;16.10;99.90
4677;DHT22;2352;48.180;11.478;2022-10-16T07:17:45;16.20;99.90
4677;DHT22;2352;48.180;11.478;2022-10-16T07:20:49;16.20;99.90
4677;DHT22;2352;48.180;11.478;2022-10-16T07:23:52;16.20;99.90
4677;DHT22;2352;48.180;11.478;2022-10-16T07:26:54;16.20;99.90
4677;DHT22;2352;48.180;11.478;2022-10-16T07:29:57;16.30;99.90
4677;DHT22;2352;48.180;11.478;2022-10-16T07:33:05;16.30;99.90
4677;DHT22;2352;48.180;11.478;2022-10-16T07:36:10;16.30;99.90
4677;DHT22;2352;48.180;11.478;2022-10-16T07:39:17;16.30;99.90
4677;DHT22;2352;48.180;11.478;2022-10-16T07:42:20;16.30;99.90
4677;DHT22;2352;48.180;11.478;2022-10-16T07:45:23;16.30;99.90
4677;DHT22;2352;48.180;11.478;2022-10-16T07:48:27;16.30;99.90
4677;DHT22;2352;48.180;11.478;2022-10-16T07:51:32;16.30;99.90
4677;DHT22;2352;48.180;11.478;2022-10-16T07:54:35;16.40;99.90
4677;DHT22;2352;48.180;11.478;2022-10-16T07:57:38;16.50;99.90
4677;DHT22;2352;48.180;11.478;2022-10-16T08:00:40;16.60;99.90
4677;DHT22;2352;48.180;11.478;2022-10-16T08:03:44;16.70;99.90
4677;DHT22;2352;48.180;11.478;2022-10-16T08:06:48;16.90;99.90
4677;DHT22;2352;48.180;11.478;2022-10-16T08:09:51;17.10;99.90
4677;DHT22;2352;48.180;11.478;2022-10-16T08:12:54;17.30;99.90
4677;DHT22;2352;48.180;11.478;2022-10-16T08:15:57;17.40;99.90
4677;DHT22;2352;48.180;11.478;2022-10-16T08:19:01;17.40;99.90
4677;DHT22;2352;48.180;11.478;2022-10-16T08:22:05;17.60;99.90
4677;DHT22;2352;48.180;11.478;2022-10-16T08:25:08;17.80;99.70
4677;DHT22;2352;48.180;11.478;2022-10-16T08:28:11;18.10;99.90
4677;DHT22;2352;48.180;11.478;2022-10-16T08:31:15;18.30;99.70
4677;DHT22;2352;48.180;11.478;2022-10-16T08:34:23;18.60;99.70
4677;DHT22;2352;48.180;11.478;2022-10-16T08:37:31;18.70;98.20
4677;DHT22;2352;48.180;11.478;2022-10-16T08:40:36;18.90;97.90
4677;DHT22;2352;48.180;11.478;2022-10-16T08:43:54;19.00;96.80
4677;DHT22;2352;48.180;11.478;2022-10-16T08:47:07;19.20;96.30
4677;DHT22;2352;48.180;11.478;2022-10-16T08:50:17;19.30;95.50
4677;DHT22;2352;48.180;11.478;2022-10-16T08:53:26;19.40;96.20
4677;DHT22;2352;48.180;11.478;2022-10-16T08:56:30;19.50;94.60
4677;DHT22;2352;48.180;11.478;2022-10-16T08:59:34;19.60;94.20
4677;DHT22;2352;48.180;11.478;2022-10-16T09:02:39;19.70;94.50
4677;DHT22;2352;48.180;11.478;2022-10-16T09:05:57;19.70;93.30
4677;DHT22;2352;48.180;11.478;2022-10-16T09:09:19;19.90;94.00
4677;DHT22;2352;48.180;11.478;2022-10-16T09:12:30;20.10;92.90
4677;DHT22;2352;48.180;11.478;2022-10-16T09:15:39;20.20;92.60
4677;DHT22;2352;48.180;11.478;2022-10-16T09:18:51;20.20;92.00
4677;DHT22;2352;48.180;11.478;2022-10-16T09:21:59;20.30;91.40
4677;DHT22;2352;48.180;11.478;2022-10-16T09:25:12;20.40;91.50
4677;DHT22;2352;48.180;11.478;2022-10-16T09:28:16;20.40;90.70
4677;DHT22;2352;48.180;11.478;2022-10-16T09:31:21;20.60;90.30
4677;DHT22;2352;48.180;11.478;2022-10-16T09:34:29;20.70;90.90
4677;DHT22;2352;48.180;11.478;2022-10-16T09:37:33;20.80;89.10
4677;DHT22;2352;48.180;11.478;2022-10-16T09:40:38;20.80;87.70
4677;DHT22;2352;48.180;11.478;2022-10-16T09:43:49;20.80;87.70
4677;DHT22;2352;48.180;11.478;2022-10-16T09:47:01;21.00;86.00
4677;DHT22;2352;48.180;11.478;2022-10-16T09:50:20;21.10;86.20
4677;DHT22;2352;48.180;11.478;2022-10-16T09:53:24;21.30;87.10
4677;DHT22;2352;48.180;11.478;2022-10-16T09:56:31;21.30;83.60
4677;DHT22;2352;48.180;11.478;2022-10-16T09:59:46;21.40;84.30
4677;DHT22;2352;48.180;11.478;2022-10-16T10:02:50;21.60;86.30
4677;DHT22;2352;48.180;11.478;2022-10-16T10:05:53;21.80;84.30
4677;DHT22;2352;48.180;11.478;2022-10-16T10:09:05;21.90;85.00
4677;DHT22;2352;48.180;11.478;2022-10-16T10:18:31;22.40;81.40
4677;DHT22;2352;48.180;11.478;2022-10-16T10:21:38;22.60;80.30
4677;DHT22;2352;48.180;11.478;2022-10-16T10:24:41;22.60;78.80
4677;DHT22;2352;48.180;11.478;2022-10-16T10:28:00;22.80;81.10
4677;DHT22;2352;48.180;11.478;2022-10-16T10:31:10;23.10;80.00
4677;DHT22;2352;48.180;11.478;2022-10-16T10:34:31;23.10;78.50
4677;DHT22;2352;48.180;11.478;2022-10-16T10:37:56;23.20;75.40
4677;DHT22;2352;48.180;11.478;2022-10-16T10:41:22;23.20;76.90
4677;DHT22;2352;48.180;11.478;2022-10-16T10:44:56;23.50;75.70
4677;DHT22;2352;48.180;11.478;2022-10-16T10:48:12;23.80;75.70
4677;DHT22;2352;48.180;11.478;2022-10-16T10:51:24;23.90;75.10
4677;DHT22;2352;48.180;11.478;2022-10-16T10:54:35;24.00;70.50
4677;DHT22;2352;48.180;11.478;2022-10-16T10:57:53;24.00;69.60
4677;DHT22;2352;48.180;11.478;2022-10-16T11:01:07;24.10;70.40
4677;DHT22;2352;48.180;11.478;2022-10-16T11:07:47;24.50;72.40
4677;DHT22;2352;48.180;11.478;2022-10-16T11:10:53;24.70;67.90
4677;DHT22;2352;48.180;11.478;2022-10-16T11:14:00;24.70;70.70
4677;DHT22;2352;48.180;11.478;2022-10-16T11:17:10;25.10;72.60
4677;DHT22;2352;48.180;11.478;2022-10-16T11:20:17;25.30;69.30
4677;DHT22;2352;48.180;11.478;2022-10-16T11:23:26;25.60;70.40
4677;DHT22;2352;48.180;11.478;2022-10-16T11:26:34;25.70;64.60
4677;DHT22;2352;48.180;11.478;2022-10-16T11:29:44;25.70;69.60
4677;DHT22;2352;48.180;11.478;2022-10-16T11:32:59;25.90;63.50
4677;DHT22;2352;48.180;11.478;2022-10-16T11:36:11;26.10;64.80
4677;DHT22;2352;48.180;11.478;2022-10-16T11:39:20;26.30;63.80
4677;DHT22;2352;48.180;11.478;2022-10-16T11:42:30;26.40;62.20
4677;DHT22;2352;48.180;11.478;2022-10-16T11:45:39;26.50;61.40
4677;DHT22;2352;48.180;11.478;2022-10-16T11:48:48;26.70;63.00
4677;DHT22;2352;48.180;11.478;2022-10-16T11:51:59;26.70;59.60
4677;DHT22;2352;48.180;11.478;2022-10-16T11:55:12;26.50;62.70
4677;DHT22;2352;48.180;11.478;2022-10-16T11:58:23;26.50;62.10
4677;DHT22;2352;48.180;11.478;2022-10-16T12:01:31;26.70;62.10
4677;DHT22;2352;48.180;11.478;2022-10-16T12:04:42;26.70;62.20
4677;DHT22;2352;48.180;11.478;2022-10-16T12:07:54;26.70;61.90
4677;DHT22;2352;48.180;11.478;2022-10-16T12:11:07;26.90;64.70
4677;DHT22;2352;48.180;11.478;2022-10-16T12:14:32;27.10;62.20
4677;DHT22;2352;48.180;11.478;2022-10-16T12:17:52;27.10;59.40
4677;DHT22;2352;48.180;11.478;2022-10-16T12:20:58;27.30;62.70
4677;DHT22;2352;48.180;11.478;2022-10-16T12:24:21;27.40;59.40
4677;DHT22;2352;48.180;11.478;2022-10-16T12:27:29;27.50;57.00
4677;DHT22;2352;48.180;11.478;2022-10-16T12:30:34;27.50;56.70
4677;DHT22;2352;48.180;11.478;2022-10-16T12:33:40;27.70;55.70
4677;DHT22;2352;48.180;11.478;2022-10-16T12:36:45;27.70;52.10
4677;DHT22;2352;48.180;11.478;2022-10-16T12:39:49;27.60;51.60
4677;DHT22;2352;48.180;11.478;2022-10-16T12:42:52;27.80;54.00
4677;DHT22;2352;48.180;11.478;2022-10-16T12:46:04;28.00;54.50
4677;DHT22;2352;48.180;11.478;2022-10-16T12:49:21;28.20;51.80
4677;DHT22;2352;48.180;11.478;2022-10-16T12:52:34;28.30;50.50
4677;DHT22;2352;48.180;11.478;2022-10-16T12:55:47;28.40;55.20
4677;DHT22;2352;48.180;11.478;2022-10-16T12:59:02;28.60;53.60
4677;DHT22;2352;48.180;11.478;2022-10-16T13:02:28;28.70;55.00
4677;DHT22;2352;48.180;11.478;2022-10-16T13:05:46;28.80;53.40
4677;DHT22;2352;48.180;11.478;2022-10-16T13:09:12;28.90;51.00
4677;DHT22;2352;48.180;11.478;2022-10-16T13:12:37;29.10;52.30
4677;DHT22;2352;48.180;11.478;2022-10-16T13:15:57;29.20;50.90
4677;DHT22;2352;48.180;11.478;2022-10-16T13:19:12;29.40;52.10
4677;DHT22;2352;48.180;11.478;2022-10-16T13:22:24;29.50;53.80
4677;DHT22;2352;48.180;11.478;2022-10-16T13:25:40;29.60;50.70
4677;DHT22;2352;48.180;11.478;2022-10-16T13:28:45;29.80;51.20
4677;DHT22;2352;48.180;11.478;2022-10-16T13:31:49;29.80;50.10
4677;DHT22;2352;48.180;11.478;2022-10-16T13:34:52;30.00;49.70
4677;DHT22;2352;48.180;11.478;2022-10-16T13:38:11;30.10;50.00
4677;DHT22;2352;48.180;11.478;2022-10-16T13:41:17;30.30;48.10
4677;DHT22;2352;48.180;11.478;2022-10-16T13:44:21;30.40;49.30
4677;DHT22;2352;48.180;11.478;2022-10-16T13:47:25;30.40;48.80
4677;DHT22;2352;48.180;11.478;2022-10-16T13:50:29;30.50;50.00
4677;DHT22;2352;48.180;11.478;2022-10-16T13:53:33;30.50;48.00
4677;DHT22;2352;48.180;11.478;2022-10-16T13:56:39;30.40;49.90
4677;DHT22;2352;48.180;11.478;2022-10-16T13:59:42;30.30;47.40
4677;DHT22;2352;48.180;11.478;2022-10-16T14:02:51;30.10;48.30
4677;DHT22;2352;48.180;11.478;2022-10-16T14:05:57;29.90;48.20
4677;DHT22;2352;48.180;11.478;2022-10-16T14:09:05;29.70;48.30
4677;DHT22;2352;48.180;11.478;2022-10-16T14:12:11;29.70;50.50
4677;DHT22;2352;48.180;11.478;2022-10-16T14:15:17;29.50;50.20
4677;DHT22;2352;48.180;11.478;2022-10-16T14:18:23;29.40;51.00
4677;DHT22;2352;48.180;11.478;2022-10-16T14:21:27;29.30;50.30
4677;DHT22;2352;48.180;11.478;2022-10-16T14:24:32;29.20;51.30
4677;DHT22;2352;48.180;11.478;2022-10-16T14:27:37;29.10;53.80
4677;DHT22;2352;48.180;11.478;2022-10-16T14:30:49;29.10;52.30
4677;DHT22;2352;48.180;11.478;2022-10-16T14:33:52;29.10;51.90
4677;DHT22;2352;48.180;11.478;2022-10-16T14:36:55;29.00;53.70
4677;DHT22;2352;48.180;11.478;2022-10-16T14:39:59;29.10;53.30
4677;DHT22;2352;48.180;11.478;2022-10-16T14:43:05;29.10;53.30
4677;DHT22;2352;48.180;11.478;2022-10-16T14:46:12;29.10;56.00
4677;DHT22;2352;48.180;11.478;2022-10-16T14:49:18;29.00;54.40
4677;DHT22;2352;48.180;11.478;2022-10-16T14:52:21;28.90;56.70
4677;DHT22;2352;48.180;11.478;2022-10-16T14:55:25;28.80;57.00
4677;DHT22;2352;48.180;11.478;2022-10-16T14:58:29;28.80;57.10
4677;DHT22;2352;48.180;11.478;2022-10-16T15:01:32;28.60;57.80
4677;DHT22;2352;48.180;11.478;2022-10-16T15:04:35;28.40;56.60
4677;DHT22;2352;48.180;11.478;2022-10-16T15:07:38;28.30;59.60
4677;DHT22;2352;48.180;11.478;2022-10-16T15:10:42;28.10;59.80
4677;DHT22;2352;48.180;11.478;2022-10-16T15:13:47;28.00;60.90
4677;DHT22;2352;48.180;11.478;2022-10-16T15:16:50;27.80;60.30
4677;DHT22;2352;48.180;11.478;2022-10-16T15:19:52;27.70;62.00
4677;DHT22;2352;48.180;11.478;2022-10-16T15:22:56;27.40;63.50
4677;DHT22;2352;48.180;11.478;2022-10-16T15:25:59;27.30;61.90
4677;DHT22;2352;48.180;11.478;2022-10-16T15:29:03;27.20;62.30
4677;DHT22;2352;48.180;11.478;2022-10-16T15:32:06;27.00;63.50
4677;DHT22;2352;48.180;11.478;2022-10-16T15:35:09;26.80;65.00
4677;DHT22;2352;48.180;11.478;2022-10-16T15:38:13;26.70;66.00
4677;DHT22;2352;48.180;11.478;2022-10-16T15:41:16;26.60;66.60
4677;DHT22;2352;48.180;11.478;2022-10-16T15:44:21;26.50;66.80
4677;DHT22;2352;48.180;11.478;2022-10-16T15:47:24;26.40;66.60
4677;DHT22;2352;48.180;11.478;2022-10-16T15:50:27;26.20;67.60
4677;DHT22;2352;48.180;11.478;2022-10-16T15:53:30;26.00;68.40
4677;DHT22;2352;48.180;11.478;2022-10-16T15:56:33;25.90;68.10
4677;DHT22;2352;48.180;11.478;2022-10-16T15:59:39;25.80;69.20
4677;DHT22;2352;48.180;11.478;2022-10-16T16:02:43;25.70;69.20
4677;DHT22;2352;48.180;11.478;2022-10-16T16:05:46;25.60;69.50
4677;DHT22;2352;48.180;11.478;2022-10-16T16:08:49;25.40;70.10
4677;DHT22;2352;48.180;11.478;2022-10-16T16:11:52;25.30;70.40
4677;DHT22;2352;48.180;11.478;2022-10-16T16:14:56;25.20;70.40
4677;DHT22;2352;48.180;11.478;2022-10-16T16:18:04;25.10;71.30
4677;DHT22;2352;48.180;11.478;2022-10-16T16:21:12;25.00;71.40
4677;DHT22;2352;48.180;11.478;2022-10-16T16:24:15;24.80;71.20
4677;DHT22;2352;48.180;11.478;2022-10-16T16:27:18;24.70;71.50
4677;DHT22;2352;48.180;11.478;2022-10-16T16:30:23;24.70;72.20
4677;DHT22;2352;48.180;11.478;2022-10-16T16:33:29;24.50;72.90
4677;DHT22;2352;48.180;11.478;2022-10-16T16:36:33;24.40;72.60
4677;DHT22;2352;48.180;11.478;2022-10-16T16:39:36;24.30;72.70
4677;DHT22;2352;48.180;11.478;2022-10-16T16:42:39;24.20;73.20
4677;DHT22;2352;48.180;11.478;2022-10-16T16:45:43;24.10;73.40
4677;DHT22;2352;48.180;11.478;2022-10-16T16:48:46;24.00;74.00
4677;DHT22;2352;48.180;11.478;2022-10-16T16:51:52;23.90;74.70
4677;DHT22;2352;48.180;11.478;2022-10-16T16:54:55;23.80;75.10
4677;DHT22;2352;48.180;11.478;2022-10-16T16:57:58;23.70;75.30
4677;DHT22;2352;48.180;11.478;2022-10-16T17:01:03;23.50;75.90
4677;DHT22;2352;48.180;11.478;2022-10-16T17:04:22;23.40;76.20
4677;DHT22;2352;48.180;11.478;2022-10-16T17:07:25;23.40;76.90
4677;DHT22;2352;48.180;11.478;2022-10-16T17:10:29;23.30;77.20
4677;DHT22;2352;48.180;11.478;2022-10-16T17:13:34;23.30;77.60
4677;DHT22;2352;48.180;11.478;2022-10-16T17:16:40;23.10;77.90
4677;DHT22;2352;48.180;11.478;2022-10-16T17:19:45;23.10;78.50
4677;DHT22;2352;48.180;11.478;2022-10-16T17:22:48;23.00;78.70
4677;DHT22;2352;48.180;11.478;2022-10-16T17:25:51;22.90;79.10
4677;DHT22;2352;48.180;11.478;2022-10-16T17:28:55;22.80;79.70
4677;DHT22;2352;48.180;11.478;2022-10-16T17:32:00;22.60;80.00
4677;DHT22;2352;48.180;11.478;2022-10-16T17:35:04;22.50;80.70
4677;DHT22;2352;48.180;11.478;2022-10-16T17:38:07;22.50;81.20
4677;DHT22;2352;48.180;11.478;2022-10-16T17:41:12;22.40;81.50
4677;DHT22;2352;48.180;11.478;2022-10-16T17:44:15;22.40;81.40
4677;DHT22;2352;48.180;11.478;2022-10-16T17:47:22;22.30;81.80
4677;DHT22;2352;48.180;11.478;2022-10-16T17:50:25;22.30;81.90
4677;DHT22;2352;48.180;11.478;2022-10-16T17:53:28;22.30;82.10
4677;DHT22;2352;48.180;11.478;2022-10-16T17:56:31;22.20;82.10
4677;DHT22;2352;48.180;11.478;2022-10-16T17:59:34;22.20;82.10
4677;DHT22;2352;48.180;11.478;2022-10-16T18:02:38;22.10;82.50
4677;DHT22;2352;48.180;11.478;2022-10-16T18:05:43;22.00;82.60
4677;DHT22;2352;48.180;11.478;2022-10-16T18:08:46;22.00;83.00
4677;DHT22;2352;48.180;11.478;2022-10-16T18:11:49;21.90;83.10
4677;DHT22;2352;48.180;11.478;2022-10-16T18:15:00;21.80;83.50
4677;DHT22;2352;48.180;11.478;2022-10-16T18:18:04;21.80;83.80
4677;DHT22;2352;48.180;11.478;2022-10-16T18:21:10;21.80;83.90
4677;DHT22;2352;48.180;11.478;2022-10-16T18:24:13;21.70;84.10
4677;DHT22;2352;48.180;11.478;2022-10-16T18:27:18;21.60;84.30
4677;DHT22;2352;48.180;11.478;2022-10-16T18:30:21;21.60;84.50
4677;DHT22;2352;48.180;11.478;2022-10-16T18:33:26;21.50;84.80
4677;DHT22;2352;48.180;11.478;2022-10-16T18:36:32;21.40;85.00
4677;DHT22;2352;48.180;11.478;2022-10-16T18:39:36;21.40;85.50
4677;DHT22;2352;48.180;11.478;2022-10-16T18:42:39;21.40;85.30
4677;DHT22;2352;48.180;11.478;2022-10-16T18:45:41;21.30;85.60
4677;DHT22;2352;48.180;11.478;2022-10-16T18:48:46;21.20;86.50
4677;DHT22;2352;48.180;11.478;2022-10-16T18:51:50;21.20;85.90
4677;DHT22;2352;48.180;11.478;2022-10-16T18:54:57;21.10;85.80
4677;DHT22;2352;48.180;11.478;2022-10-16T18:58:00;21.10;86.00
4677;DHT22;2352;48.180;11.478;2022-10-16T19:01:04;21.10;86.20
4677;DHT22;2352;48.180;11.478;2022-10-16T19:04:10;21.00;86.30
4677;DHT22;2352;48.180;11.478;2022-10-16T19:07:13;21.00;86.20
4677;DHT22;2352;48.180;11.478;2022-10-16T19:10:17;21.00;86.40
4677;DHT22;2352;48.180;11.478;2022-10-16T19:13:20;20.90;86.70
4677;DHT22;2352;48.180;11.478;2022-10-16T19:16:25;20.80;86.80
4677;DHT22;2352;48.180;11.478;2022-10-16T19:19:29;20.80;86.80
4677;DHT22;2352;48.180;11.478;2022-10-16T19:22:32;20.70;87.10
4677;DHT22;2352;48.180;11.478;2022-10-16T19:25:52;20.60;87.30
4677;DHT22;2352;48.180;11.478;2022-10-16T19:28:57;20.60;87.60
4677;DHT22;2352;48.180;11.478;2022-10-16T19:32:00;20.50;87.50
4677;DHT22;2352;48.180;11.478;2022-10-16T19:35:09;20.40;87.70
4677;DHT22;2352;48.180;11.478;2022-10-16T19:38:12;20.30;88.10
4677;DHT22;2352;48.180;11.478;2022-10-16T19:41:16;20.30;88.50
4677;DHT22;2352;48.180;11.478;2022-10-16T19:44:19;20.20;88.60
4677;DHT22;2352;48.180;11.478;2022-10-16T19:47:22;20.20;88.60
4677;DHT22;2352;48.180;11.478;2022-10-16T19:50:27;20.20;88.80
4677;DHT22;2352;48.180;11.478;2022-10-16T19:53:30;20.10;88.20
4677;DHT22;2352;48.180;11.478;2022-10-16T19:56:34;19.70;90.60
4677;DHT22;2352;48.180;11.478;2022-10-16T19:59:38;19.50;91.20
4677;DHT22;2352;48.180;11.478;2022-10-16T20:02:46;19.20;91.70
4677;DHT22;2352;48.180;11.478;2022-10-16T20:05:51;19.10;92.10
4677;DHT22;2352;48.180;11.478;2022-10-16T20:08:54;18.90;92.40
4677;DHT22;2352;48.180;11.478;2022-10-16T20:11:58;18.80;92.70
4677;DHT22;2352;48.180;11.478;2022-10-16T20:15:01;18.80;92.70
4677;DHT22;2352;48.180;11.478;2022-10-16T20:18:05;18.80;92.80
4677;DHT22;2352;48.180;11.478;2022-10-16T20:21:10;18.70;92.90
4677;DHT22;2352;48.180;11.478;2022-10-16T20:24:13;18.60;93.00
4677;DHT22;2352;48.180;11.478;2022-10-16T20:27:16;18.60;93.80
4677;DHT22;2352;48.180;11.478;2022-10-16T20:30:19;18.50;93.40
4677;DHT22;2352;48.180;11.478;2022-10-16T20:33:22;18.50;93.40
4677;DHT22;2352;48.180;11.478;2022-10-16T20:36:26;18.40;93.30
4677;DHT22;2352;48.180;11.478;2022-10-16T20:39:31;18.40;93.70
4677;DHT22;2352;48.180;11.478;2022-10-16T20:42:33;18.30;93.90
4677;DHT22;2352;48.180;11.478;2022-10-16T20:45:36;18.30;93.80
4677;DHT22;2352;48.180;11.478;2022-10-16T20:48:40;18.30;93.80
4677;DHT22;2352;48.180;11.478;2022-10-16T20:51:46;18.20;93.80
4677;DHT22;2352;48.180;11.478;2022-10-16T20:54:50;18.20;93.90
4677;DHT22;2352;48.180;11.478;2022-10-16T20:57:53;18.30;93.50
4677;DHT22;2352;48.180;11.478;2022-10-16T21:01:03;18.20;93.60
4677;DHT22;2352;48.180;11.478;2022-10-16T21:04:07;18.10;93.70
4677;DHT22;2352;48.180;11.478;2022-10-16T21:07:11;18.00;93.90
4677;DHT22;2352;48.180;11.478;2022-10-16T21:10:14;18.00;93.90
4677;DHT22;2352;48.180;11.478;2022-10-16T21:13:17;17.90;93.90
4677;DHT22;2352;48.180;11.478;2022-10-16T21:16:20;17.90;94.00
4677;DHT22;2352;48.180;11.478;2022-10-16T21:19:24;17.90;94.10
4677;DHT22;2352;48.180;11.478;2022-10-16T21:22:29;17.90;94.20